createdAt,value
2022-08-03T00:03:14.681Z,96440.31
2022-08-03T00:06:04.750Z,96443.00
2022-08-03T00:11:38.693Z,96452.53
2022-08-03T00:14:07.242Z,96434.53
2022-08-03T00:16:57.934Z,96433.50
2022-08-03T00:19:24.826Z,96435.13
2022-08-03T00:22:04.361Z,96432.03
2022-08-03T00:27:16.688Z,96425.19
2022-08-03T00:32:35.267Z,96430.38
2022-08-03T00:35:37.103Z,96431.41
2022-08-03T00:38:07.708Z,96432.03
2022-08-03T00:40:47.324Z,96421.66
2022-08-03T00:43:16.638Z,96437.22
2022-08-03T00:45:47.152Z,96438.25
2022-08-03T00:48:33.238Z,96436.59
2022-08-03T00:51:03.046Z,96431.00
2022-08-03T00:53:42.291Z,96433.31
2022-08-03T00:56:11.988Z,96437.03
2022-08-03T00:58:58.258Z,96433.72
2022-08-03T01:01:25.113Z,96433.13
2022-08-03T01:07:03.072Z,96436.81
2022-08-03T01:09:58.411Z,96430.81
2022-08-03T01:15:52.899Z,96431.44
2022-08-03T01:18:42.493Z,96417.16
2022-08-03T01:27:33.989Z,96419.84
2022-08-03T01:30:08.652Z,96422.53
2022-08-03T01:32:53.220Z,96424.81
2022-08-03T01:35:39.549Z,96424.44
2022-08-03T01:41:17.990Z,96426.91
2022-08-03T01:44:29.089Z,96415.94
2022-08-03T01:46:54.574Z,96416.34
2022-08-03T01:49:42.179Z,96416.34
2022-08-03T01:52:32.065Z,96414.47
2022-08-03T01:55:11.191Z,96421.09
2022-08-03T01:58:05.163Z,96422.78
2022-08-03T02:00:45.981Z,96419.88
2022-08-03T02:07:01.572Z,96406.59
2022-08-03T02:09:36.538Z,96405.78
2022-08-03T02:17:42.225Z,96406.59
2022-08-03T02:20:30.569Z,96405.56
2022-08-03T02:22:57.700Z,96397.72
2022-08-03T02:28:22.385Z,96410.75
2022-08-03T02:36:38.054Z,96421.28
2022-08-03T02:42:03.773Z,96406.38
2022-08-03T02:44:53.628Z,96408.88
2022-08-03T02:47:21.850Z,96403.69
2022-08-03T02:49:55.791Z,96411.59
2022-08-03T02:57:56.211Z,96403.28
2022-08-03T03:03:21.764Z,96409.06
2022-08-03T03:06:05.722Z,96410.72
2022-08-03T03:08:50.251Z,96401.19
2022-08-03T03:11:42.290Z,96405.53
2022-08-03T03:14:12.691Z,96406.50
2022-08-03T03:19:36.511Z,96411.69
2022-08-03T03:22:09.422Z,96400.31
2022-08-03T03:24:58.179Z,96411.06
2022-08-03T03:27:33.139Z,96407.13
2022-08-03T03:35:57.117Z,96412.91
2022-08-03T03:38:47.766Z,96414.75
2022-08-03T03:44:02.061Z,96405.03
2022-08-03T03:46:31.798Z,96411.44
2022-08-03T03:49:10.803Z,96416.19
2022-08-03T03:51:40.900Z,96416.38
2022-08-03T03:54:08.087Z,96412.03
2022-08-03T04:05:08.745Z,96424.63
2022-08-03T04:08:01.861Z,96421.13
2022-08-03T04:10:50.519Z,96429.19
2022-08-03T04:13:29.048Z,96430.22
2022-08-03T04:18:43.661Z,96423.38
2022-08-03T04:21:15.871Z,96430.63
2022-08-03T04:29:14.070Z,96436.66
2022-08-03T04:31:43.819Z,96434.41
2022-08-03T04:34:15.960Z,96438.53
2022-08-03T04:37:02.008Z,96440.59
2022-08-03T04:39:34.531Z,96448.28
2022-08-03T04:42:08.656Z,96449.72
2022-08-03T04:44:45.648Z,96443.06
2022-08-03T04:47:15.191Z,96447.88
2022-08-03T04:49:50.638Z,96451.59
2022-08-03T04:55:34.463Z,96449.16
2022-08-03T04:58:05.180Z,96452.66
2022-08-03T05:01:02.683Z,96448.28
2022-08-03T05:03:40.625Z,96449.34
2022-08-03T05:06:11.578Z,96450.81
2022-08-03T05:11:40.566Z,96461.59
2022-08-03T05:14:10.069Z,96453.69
2022-08-03T05:16:45.370Z,96464.94
2022-08-03T05:19:12.596Z,96457.50
2022-08-03T05:21:52.015Z,96458.75
2022-08-03T05:24:19.760Z,96456.47
2022-08-03T05:26:48.609Z,96455.03
2022-08-03T05:29:23.509Z,96458.56
2022-08-03T05:31:54.517Z,96456.28
2022-08-03T05:34:23.873Z,96455.28
2022-08-03T05:36:51.017Z,96454.25
2022-08-03T05:42:10.432Z,96455.59
2022-08-03T05:44:42.074Z,96456.22
2022-08-03T05:47:09.058Z,96452.50
2022-08-03T05:49:35.957Z,96457.25
2022-08-03T05:52:15.597Z,96445.38
2022-08-03T05:54:56.390Z,96443.88
2022-08-03T05:57:28.190Z,96453.81
2022-08-03T05:59:58.623Z,96457.56
2022-08-03T06:02:27.553Z,96456.03
2022-08-03T06:04:55.194Z,96448.31
2022-08-03T06:10:35.775Z,96456.06
2022-08-03T06:12:53.625Z,96461.53
2022-08-03T06:15:22.836Z,96457.84
2022-08-03T06:17:53.093Z,96454.13
2022-08-03T06:20:21.412Z,96457.34
2022-08-03T06:23:00.238Z,96462.06
2022-08-03T06:25:33.486Z,96461.03
2022-08-03T06:28:00.500Z,96465.09
2022-08-03T06:30:29.931Z,96465.84
2022-08-03T06:32:56.742Z,96461.44
2022-08-03T06:35:26.590Z,96467.63
2022-08-03T06:40:40.005Z,96462.00
2022-08-03T06:43:18.150Z,96465.50
2022-08-03T06:45:57.001Z,96463.16
2022-08-03T06:48:24.579Z,96460.63
2022-08-03T06:50:51.927Z,96453.94
2022-08-03T06:55:53.874Z,96463.91
2022-08-03T06:58:24.016Z,96459.38
2022-08-03T07:00:50.900Z,96458.53
2022-08-03T07:03:18.016Z,96456.50
2022-08-03T07:05:51.646Z,96460.78
2022-08-03T07:08:18.632Z,96462.84
2022-08-03T07:11:02.449Z,96460.66
2022-08-03T07:13:30.211Z,96461.47
2022-08-03T07:16:08.632Z,96459.72
2022-08-03T07:18:52.474Z,96468.75
2022-08-03T07:21:29.924Z,96455.81
2022-08-03T07:24:12.796Z,96462.06
2022-08-03T07:26:50.640Z,96460.97
2022-08-03T07:29:26.647Z,96459.38
2022-08-03T07:32:03.605Z,96455.75
2022-08-03T07:35:00.853Z,96454.63
2022-08-03T07:37:54.436Z,96463.34
2022-08-03T07:40:23.910Z,96458.50
2022-08-03T07:42:58.457Z,96454.03
2022-08-03T07:45:26.778Z,96449.91
2022-08-03T07:47:54.190Z,96461.22
2022-08-03T07:50:22.760Z,96461.63
2022-08-03T07:52:51.855Z,96459.59
2022-08-03T07:55:23.522Z,96453.69
2022-08-03T07:58:09.925Z,96454.34
2022-08-03T08:00:37.000Z,96456.47
2022-08-03T08:03:04.861Z,96454.91
2022-08-03T08:05:32.138Z,96461.34
2022-08-03T08:07:58.859Z,96453.38
2022-08-03T08:10:25.716Z,96462.72
2022-08-03T08:12:52.679Z,96462.41
2022-08-03T08:15:19.429Z,96458.88
2022-08-03T08:17:54.145Z,96453.00
2022-08-03T08:20:28.407Z,96459.94
2022-08-03T08:23:01.106Z,96454.50
2022-08-03T08:25:29.858Z,96461.31
2022-08-03T08:28:29.507Z,96457.19
2022-08-03T08:30:43.572Z,96453.91
2022-08-03T08:33:22.689Z,96465.41
2022-08-03T08:35:51.842Z,96460.00
2022-08-03T08:38:18.573Z,96456.38
2022-08-03T08:40:46.018Z,96450.19
2022-08-03T08:43:12.724Z,96453.53
2022-08-03T08:45:41.407Z,96444.50
2022-08-03T08:48:10.817Z,96446.44
2022-08-03T08:50:38.853Z,96439.28
2022-08-03T08:53:09.688Z,96443.16
2022-08-03T08:55:58.203Z,96439.88
2022-08-03T08:58:29.830Z,96441.75
2022-08-03T09:00:57.081Z,96440.41
2022-08-03T09:03:29.593Z,96442.03
2022-08-03T09:05:59.659Z,96443.91
2022-08-03T09:08:26.458Z,96434.31
2022-08-03T09:13:34.848Z,96433.47
2022-08-03T09:16:13.048Z,96426.91
2022-08-03T09:18:40.234Z,96431.63
2022-08-03T09:21:34.321Z,96423.34
2022-08-03T09:24:05.184Z,96433.94
2022-08-03T09:26:37.589Z,96433.66
2022-08-03T09:29:14.910Z,96432.59
2022-08-03T09:31:45.906Z,96424.72
2022-08-03T09:34:17.472Z,96433.84
2022-08-03T09:36:48.779Z,96431.38
2022-08-03T09:39:41.264Z,96427.84
2022-08-03T09:42:14.933Z,96425.59
2022-08-03T09:44:47.238Z,96422.59
2022-08-03T09:47:16.415Z,96419.03
2022-08-03T09:49:57.935Z,96423.59
2022-08-03T09:52:37.873Z,96411.31
2022-08-03T09:56:32.737Z,96410.03
2022-08-03T09:58:07.012Z,96408.03
2022-08-03T10:00:54.141Z,96411.84
2022-08-03T10:03:21.522Z,96403.84
2022-08-03T10:05:48.317Z,96406.50
2022-08-03T10:08:16.315Z,96403.34
2022-08-03T10:10:45.325Z,96396.69
2022-08-03T10:13:18.903Z,96412.44
2022-08-03T10:16:23.783Z,96398.63
2022-08-03T10:18:33.812Z,96405.63
2022-08-03T10:21:10.570Z,96395.16
2022-08-03T10:23:38.772Z,96397.22
2022-08-03T10:26:08.018Z,96393.25
2022-08-03T10:28:47.360Z,96379.78
2022-08-03T10:31:15.986Z,96386.34
2022-08-03T10:33:51.297Z,96386.59
2022-08-03T10:36:24.253Z,96385.03
2022-08-03T10:38:53.419Z,96375.03
2022-08-03T10:41:22.044Z,96381.19
2022-08-03T10:44:08.521Z,96381.84
2022-08-03T10:46:44.126Z,96379.06
2022-08-03T10:49:34.526Z,96377.75
2022-08-03T10:52:10.409Z,96384.47
2022-08-03T10:55:07.494Z,96377.13
2022-08-03T10:57:47.420Z,96369.34
2022-08-03T11:00:21.000Z,96367.88
2022-08-03T11:03:16.829Z,96363.81
2022-08-03T11:05:46.600Z,96368.84
2022-08-03T11:08:25.215Z,96371.84
2022-08-03T11:11:01.079Z,96371.47
2022-08-03T11:13:31.831Z,96369.38
2022-08-03T11:16:02.326Z,96358.13
2022-08-03T11:18:31.863Z,96349.16
2022-08-03T11:21:00.436Z,96365.38
2022-08-03T11:24:03.214Z,96354.59
2022-08-03T11:26:31.558Z,96364.13
2022-08-03T11:29:38.453Z,96361.75
2022-08-03T11:32:05.307Z,96353.41
2022-08-03T11:34:32.007Z,96348.34
2022-08-03T11:37:22.873Z,96349.47
2022-08-03T11:39:53.052Z,96356.34
2022-08-03T11:42:23.038Z,96352.44
2022-08-03T11:44:55.106Z,96354.84
2022-08-03T11:47:24.169Z,96356.41
2022-08-03T11:49:54.073Z,96349.22
2022-08-03T11:52:26.800Z,96340.44
2022-08-03T11:54:56.872Z,96349.16
2022-08-03T11:59:10.607Z,96331.31
2022-08-03T12:00:26.035Z,96335.38
2022-08-03T12:02:56.455Z,96330.00
2022-08-03T12:05:53.275Z,96331.88
2022-08-03T12:08:27.368Z,96323.22
2022-08-03T12:10:55.729Z,96326.31
2022-08-03T12:14:35.760Z,96328.47
2022-08-03T12:16:10.812Z,96327.28
2022-08-03T12:18:37.643Z,96323.31
2022-08-03T12:21:12.741Z,96316.97
2022-08-03T12:23:39.675Z,96317.69
2022-08-03T12:26:08.585Z,96318.41
2022-08-03T12:28:38.358Z,96318.06
2022-08-03T12:31:13.351Z,96317.09
2022-08-03T12:34:02.891Z,96310.66
2022-08-03T12:36:31.813Z,96308.00
2022-08-03T12:39:05.047Z,96307.34
2022-08-03T12:41:35.478Z,96308.97
2022-08-03T12:44:04.455Z,96306.44
2022-08-03T12:46:36.939Z,96298.13
2022-08-03T12:49:20.059Z,96302.50
2022-08-03T12:51:46.809Z,96303.22
2022-08-03T12:54:32.706Z,96293.50
2022-08-03T12:57:07.706Z,96292.50
2022-08-03T12:59:53.058Z,96285.69
2022-08-03T13:02:25.728Z,96284.53
2022-08-03T13:04:54.807Z,96292.25
2022-08-03T13:07:22.454Z,96287.63
2022-08-03T13:09:54.977Z,96272.28
2022-08-03T13:12:29.970Z,96279.06
2022-08-03T13:15:00.702Z,96270.78
2022-08-03T13:17:28.066Z,96277.03
2022-08-03T13:19:54.844Z,96268.06
2022-08-03T13:22:24.221Z,96270.22
2022-08-03T13:24:53.087Z,96262.00
2022-08-03T13:28:01.661Z,96263.88
2022-08-03T13:30:08.921Z,96268.25
2022-08-03T13:32:36.131Z,96263.88
2022-08-03T13:35:03.349Z,96256.75
2022-08-03T13:37:32.285Z,96255.41
2022-08-03T13:40:02.433Z,96257.91
2022-08-03T13:42:31.490Z,96258.31
2022-08-03T13:44:59.289Z,96253.13
2022-08-03T13:47:27.053Z,96252.88
2022-08-03T13:50:01.387Z,96254.00
2022-08-03T13:52:30.567Z,96249.09
2022-08-03T13:54:57.339Z,96248.28
2022-08-03T13:58:05.337Z,96245.00
2022-08-03T14:00:11.271Z,96242.19
2022-08-03T14:02:38.410Z,96234.47
2022-08-03T14:05:05.555Z,96232.19
2022-08-03T14:07:32.229Z,96228.91
2022-08-03T14:09:58.935Z,96232.19
2022-08-03T14:12:25.634Z,96235.16
2022-08-03T14:14:52.315Z,96229.16
2022-08-03T14:17:19.415Z,96222.28
2022-08-03T14:19:53.533Z,96226.69
2022-08-03T14:22:21.348Z,96222.91
2022-08-03T14:24:49.237Z,96228.69
2022-08-03T14:27:16.607Z,96223.28
2022-08-03T14:29:43.596Z,96227.97
2022-08-03T14:32:13.264Z,96230.47
2022-08-03T14:34:40.973Z,96223.81
2022-08-03T14:37:08.146Z,96222.22
2022-08-03T14:42:21.995Z,96219.97
2022-08-03T14:44:48.763Z,96217.22
2022-08-03T14:47:15.723Z,96216.38
2022-08-03T14:50:37.640Z,96220.56
2022-08-03T14:52:29.745Z,96219.25
2022-08-03T14:54:56.865Z,96209.72
2022-08-03T14:57:23.623Z,96215.47
2022-08-03T14:59:56.358Z,96211.91
2022-08-03T15:02:25.346Z,96212.16
2022-08-03T15:04:53.033Z,96208.34
2022-08-03T15:07:20.814Z,96203.88
2022-08-03T15:09:48.060Z,96203.84
2022-08-03T15:12:14.767Z,96206.38
2022-08-03T15:14:41.593Z,96207.75
2022-08-03T15:17:08.414Z,96212.44
2022-08-03T15:20:02.416Z,96205.38
2022-08-03T15:22:25.442Z,96207.31
2022-08-03T15:26:03.787Z,96209.53
2022-08-03T15:28:03.565Z,96206.28
2022-08-03T15:30:33.975Z,96195.06
2022-08-03T15:33:00.641Z,96199.72
2022-08-03T15:35:28.944Z,96203.28
2022-08-03T15:37:55.667Z,96200.53
2022-08-03T15:40:22.480Z,96196.97
2022-08-03T15:42:49.209Z,96201.06
2022-08-03T15:45:20.608Z,96205.19
2022-08-03T15:47:47.407Z,96187.97
2022-08-03T15:50:14.135Z,96188.50
2022-08-03T15:52:40.814Z,96198.63
2022-08-03T15:55:08.238Z,96186.59
2022-08-03T15:57:34.970Z,96187.69
2022-08-03T16:00:33.470Z,96185.50
2022-08-03T16:03:01.084Z,96193.44
2022-08-03T16:05:28.130Z,96183.03
2022-08-03T16:08:03.236Z,96188.75
2022-08-03T16:10:31.137Z,96181.88
2022-08-03T16:13:00.589Z,96185.41
2022-08-03T16:15:27.739Z,96185.38
2022-08-03T16:17:54.728Z,96182.66
2022-08-03T16:20:34.059Z,96174.16
2022-08-03T16:23:08.468Z,96184.56
2022-08-03T16:25:39.583Z,96178.28
2022-08-03T16:28:13.398Z,96182.13
2022-08-03T16:30:41.220Z,96180.22
2022-08-03T16:33:08.027Z,96179.63
2022-08-03T16:35:34.760Z,96178.25
2022-08-03T16:38:02.835Z,96182.03
2022-08-03T16:40:31.161Z,96179.81
2022-08-03T16:42:57.962Z,96174.06
2022-08-03T16:45:24.953Z,96177.81
2022-08-03T16:48:01.738Z,96187.34
2022-08-03T16:50:33.363Z,96182.63
2022-08-03T16:53:00.102Z,96186.94
2022-08-03T16:55:48.868Z,96183.63
2022-08-03T16:58:15.211Z,96183.03
2022-08-03T17:00:44.286Z,96187.59
2022-08-03T17:03:20.679Z,96183.50
2022-08-03T17:05:51.325Z,96189.72
2022-08-03T17:08:26.800Z,96192.97
2022-08-03T17:10:55.150Z,96192.34
2022-08-03T17:13:22.814Z,96200.47
2022-08-03T17:15:57.922Z,96198.50
2022-08-03T17:18:34.896Z,96205.81
2022-08-03T17:21:06.595Z,96201.66
2022-08-03T17:23:56.579Z,96205.75
2022-08-03T17:26:30.288Z,96209.47
2022-08-03T17:29:11.253Z,96214.56
2022-08-03T17:31:48.529Z,96210.44
2022-08-03T17:34:16.768Z,96211.53
2022-08-03T17:39:57.060Z,96213.84
2022-08-03T17:42:30.491Z,96217.34
2022-08-03T17:47:57.288Z,96230.22
2022-08-03T17:50:35.352Z,96233.19
2022-08-03T17:53:15.247Z,96221.13
2022-08-03T17:56:44.940Z,96232.44
2022-08-03T17:59:52.168Z,96228.78
2022-08-03T18:02:40.498Z,96236.06
2022-08-03T18:05:17.376Z,96242.75
2022-08-03T18:08:01.587Z,96243.19
2022-08-03T18:10:35.191Z,96248.50
2022-08-03T18:13:10.430Z,96255.00
2022-08-03T18:15:43.086Z,96252.44
2022-08-03T18:18:14.165Z,96246.59
2022-08-03T18:20:45.760Z,96263.31
2022-08-03T18:23:24.729Z,96259.38
2022-08-03T18:25:57.898Z,96264.13
2022-08-03T18:28:27.733Z,96268.94
2022-08-03T18:30:58.201Z,96268.03
2022-08-03T18:34:17.078Z,96269.25
2022-08-03T18:36:22.124Z,96272.72
2022-08-03T18:41:46.646Z,96283.03
2022-08-03T18:44:45.638Z,96285.44
2022-08-03T18:47:50.916Z,96281.75
2022-08-03T18:50:34.208Z,96285.59
2022-08-03T18:53:16.380Z,96291.19
2022-08-03T18:56:01.705Z,96291.31
2022-08-03T18:58:51.497Z,96303.63
2022-08-03T19:02:00.611Z,96296.34
2022-08-03T19:04:41.148Z,96302.47
2022-08-03T19:07:11.211Z,96310.53
2022-08-03T19:09:54.662Z,96319.84
2022-08-03T19:12:40.187Z,96320.47
2022-08-03T19:15:12.953Z,96314.09
2022-08-03T19:17:53.835Z,96322.91
2022-08-03T19:20:26.240Z,96329.25
2022-08-03T19:22:55.215Z,96329.75
2022-08-03T19:25:34.518Z,96330.47
2022-08-03T19:28:04.149Z,96328.44
2022-08-03T19:30:39.773Z,96333.53
2022-08-03T19:33:09.746Z,96334.81
2022-08-03T19:35:51.654Z,96333.88
2022-08-03T19:38:27.524Z,96335.63
2022-08-03T19:41:03.267Z,96338.25
2022-08-03T19:43:53.358Z,96341.41
2022-08-03T19:46:20.993Z,96343.63
2022-08-03T19:48:54.703Z,96340.09
2022-08-03T19:52:01.406Z,96345.97
2022-08-03T19:54:15.450Z,96350.22
2022-08-03T19:56:47.184Z,96353.84
2022-08-03T19:59:15.667Z,96355.34
2022-08-03T20:01:50.941Z,96353.97
2022-08-03T20:04:18.118Z,96362.09
2022-08-03T20:06:48.075Z,96359.59
2022-08-03T20:09:18.101Z,96362.53
2022-08-03T20:11:45.343Z,96358.06
2022-08-03T20:14:13.332Z,96366.41
2022-08-03T20:16:53.112Z,96366.00
2022-08-03T20:19:20.000Z,96370.00
2022-08-03T20:21:50.136Z,96361.06
2022-08-03T20:24:24.514Z,96366.09
2022-08-03T20:26:54.286Z,96365.50
2022-08-03T20:30:06.328Z,96367.63
2022-08-03T20:32:34.493Z,96361.69
2022-08-03T20:35:01.222Z,96369.47
2022-08-03T20:37:27.916Z,96367.81
2022-08-03T20:39:57.353Z,96365.78
2022-08-03T20:42:24.795Z,96367.88
2022-08-03T20:45:04.700Z,96369.41
2022-08-03T20:47:35.715Z,96367.38
2022-08-03T20:50:04.356Z,96367.91
2022-08-03T20:52:49.303Z,96368.84
2022-08-03T20:55:16.798Z,96365.59
2022-08-03T20:57:43.535Z,96372.03
2022-08-03T21:00:22.148Z,96376.06
2022-08-03T21:02:48.990Z,96369.00
2022-08-03T21:05:15.676Z,96374.63
2022-08-03T21:08:06.236Z,96377.34
2022-08-03T21:10:37.876Z,96377.34
2022-08-03T21:12:55.019Z,96223.78
2022-08-03T21:12:58.867Z,96269.31
2022-08-03T21:13:18.018Z,96370.25
2022-08-03T21:16:11.786Z,96370.72
2022-08-03T21:18:45.057Z,96376.56
2022-08-03T21:21:14.957Z,96379.50
2022-08-03T21:23:48.940Z,96385.34
2022-08-03T21:26:18.170Z,96383.69
2022-08-03T21:28:46.956Z,96383.13
2022-08-03T21:31:14.801Z,96378.56
2022-08-03T21:33:47.049Z,96384.41
2022-08-03T21:36:15.311Z,96387.34
2022-08-03T21:38:43.949Z,96386.75
2022-08-03T21:41:14.371Z,96390.13
2022-08-03T21:43:41.134Z,96383.50
2022-08-03T21:46:08.399Z,96380.47
2022-08-03T21:48:41.543Z,96383.41
2022-08-03T21:51:12.726Z,96379.88
2022-08-03T21:54:02.416Z,96384.69
2022-08-03T21:56:33.853Z,96379.09
2022-08-03T21:59:05.398Z,96382.50
2022-08-03T22:01:35.394Z,96385.63
2022-08-03T22:04:11.855Z,96378.81
2022-08-03T22:06:42.459Z,96389.00
2022-08-03T22:09:09.682Z,96387.56
2022-08-03T22:11:39.424Z,96385.31
2022-08-03T22:14:06.510Z,96387.16
2022-08-03T22:16:33.394Z,96389.50
2022-08-03T22:19:00.132Z,96395.34
2022-08-03T22:21:36.111Z,96388.34
2022-08-03T22:24:05.513Z,96389.59
2022-08-03T22:26:35.379Z,96396.66
2022-08-03T22:29:08.025Z,96397.91
2022-08-03T22:31:57.694Z,96397.28
2022-08-03T22:34:26.492Z,96396.31
2022-08-03T22:36:57.329Z,96393.88
2022-08-03T22:39:29.226Z,96395.94
2022-08-03T22:41:59.590Z,96393.88
2022-08-03T22:44:27.608Z,96392.44
2022-08-03T22:46:54.482Z,96398.88
2022-08-03T22:49:22.715Z,96403.25
2022-08-03T22:51:51.925Z,96405.75
2022-08-03T22:54:18.803Z,96403.50
2022-08-03T22:56:50.682Z,96401.25
2022-08-03T22:59:38.929Z,96398.75
2022-08-03T23:02:20.278Z,96405.19
2022-08-03T23:04:55.227Z,96401.88
2022-08-03T23:07:33.312Z,96401.69
2022-08-03T23:10:04.172Z,96399.66
2022-08-03T23:12:34.618Z,96404.25
2022-08-03T23:15:05.422Z,96397.22
2022-08-03T23:17:33.232Z,96397.88
2022-08-03T23:20:06.912Z,96394.53
2022-08-03T23:22:35.004Z,96394.75
2022-08-03T23:25:04.800Z,96397.91
2022-08-03T23:27:32.936Z,96389.41
2022-08-03T23:30:01.381Z,96395.59
2022-08-03T23:32:30.684Z,96401.44
2022-08-03T23:35:19.238Z,96401.66
2022-08-03T23:38:04.045Z,96401.03
2022-08-03T23:40:34.182Z,96387.75
2022-08-03T23:43:02.143Z,96391.13
2022-08-03T23:45:31.451Z,96390.09
2022-08-03T23:47:58.154Z,96392.97
2022-08-03T23:50:28.460Z,96389.44
2022-08-03T23:53:12.246Z,96386.97
2022-08-03T23:55:47.903Z,96379.91
2022-08-03T23:58:29.238Z,96383.88
